sensor_id;sensor_type;location;lat;lon;timestamp;pressure;altitude;pressure_sealevel;temperature;humidity
7474;BME280;3778;42.572;23.426;2023-03-04T00:00:54;95503.91;;;-146.70;90.35
7474;BME280;3778;42.572;23.426;2023-03-04T00:03:21;95499.75;;;-146.70;90.25
7474;BME280;3778;42.572;23.426;2023-03-04T00:05:47;95499.75;;;-146.70;90.36
7474;BME280;3778;42.572;23.426;2023-03-04T00:08:14;95508.09;;;-146.70;90.42
7474;BME280;3778;42.572;23.426;2023-03-04T00:10:42;95499.75;;;-146.70;90.34
7474;BME280;3778;42.572;23.426;2023-03-04T00:13:09;95491.41;;;-146.70;90.35
7474;BME280;3778;42.572;23.426;2023-03-04T00:15:36;95503.91;;;-146.70;90.36
7474;BME280;3778;42.572;23.426;2023-03-04T00:18:04;95393.44;;;-146.70;90.56
7474;BME280;3778;42.572;23.426;2023-03-04T00:20:31;95499.75;;;-146.70;90.77
7474;BME280;3778;42.572;23.426;2023-03-04T00:22:57;95522.69;;;-146.70;90.77
7474;BME280;3778;42.572;23.426;2023-03-04T00:25:24;95499.75;;;-146.70;90.95
7474;BME280;3778;42.572;23.426;2023-03-04T00:27:51;95503.91;;;-146.70;91.18
7474;BME280;3778;42.572;23.426;2023-03-04T00:30:18;95466.41;;;-146.70;90.97
7474;BME280;3778;42.572;23.426;2023-03-04T00:32:44;95522.69;;;-146.70;91.18
7474;BME280;3778;42.572;23.426;2023-03-04T00:35:12;95508.09;;;-146.70;91.19
7474;BME280;3778;42.572;23.426;2023-03-04T00:37:39;95503.91;;;-146.70;91.15
7474;BME280;3778;42.572;23.426;2023-03-04T00:40:07;95485.16;;;-146.70;91.00
7474;BME280;3778;42.572;23.426;2023-03-04T00:42:34;95449.72;;;-146.70;90.89
7474;BME280;3778;42.572;23.426;2023-03-04T00:45:01;95512.25;;;-146.70;90.70
7474;BME280;3778;42.572;23.426;2023-03-04T00:47:27;95468.47;;;-146.70;90.70
7474;BME280;3778;42.572;23.426;2023-03-04T00:49:54;95483.06;;;-146.70;90.85
7474;BME280;3778;42.572;23.426;2023-03-04T00:52:22;95487.25;;;-146.70;90.93
7474;BME280;3778;42.572;23.426;2023-03-04T00:54:49;95516.44;;;-146.70;91.12
7474;BME280;3778;42.572;23.426;2023-03-04T00:57:15;95514.34;;;-146.70;91.19
7474;BME280;3778;42.572;23.426;2023-03-04T00:59:42;95553.94;;;-146.70;91.15
7474;BME280;3778;42.572;23.426;2023-03-04T01:02:11;95522.69;;;-146.70;91.23
7474;BME280;3778;42.572;23.426;2023-03-04T01:04:37;95493.50;;;-146.70;91.42
7474;BME280;3778;42.572;23.426;2023-03-04T01:07:06;95495.59;;;-146.70;91.50
7474;BME280;3778;42.572;23.426;2023-03-04T01:09:34;95508.09;;;-146.70;91.63
7474;BME280;3778;42.572;23.426;2023-03-04T01:12:01;95541.44;;;-146.70;92.05
7474;BME280;3778;42.572;23.426;2023-03-04T01:14:28;95512.25;;;-146.70;92.19
7474;BME280;3778;42.572;23.426;2023-03-04T01:16:55;95535.19;;;-146.70;92.28
7474;BME280;3778;42.572;23.426;2023-03-04T01:19:21;95520.59;;;-146.70;92.48
7474;BME280;3778;42.572;23.426;2023-03-04T01:21:48;95516.44;;;-146.70;92.52
7474;BME280;3778;42.572;23.426;2023-03-04T01:24:15;95549.78;;;-146.70;92.44
7474;BME280;3778;42.572;23.426;2023-03-04T01:26:43;95528.94;;;-146.70;92.58
7474;BME280;3778;42.572;23.426;2023-03-04T01:29:10;95493.50;;;-146.70;92.57
7474;BME280;3778;42.572;23.426;2023-03-04T01:31:36;95549.78;;;-146.70;92.51
7474;BME280;3778;42.572;23.426;2023-03-04T01:34:03;95512.25;;;-146.70;92.46
7474;BME280;3778;42.572;23.426;2023-03-04T01:36:30;95495.59;;;-146.70;92.53
7474;BME280;3778;42.572;23.426;2023-03-04T01:38:56;95508.09;;;-146.70;92.58
7474;BME280;3778;42.572;23.426;2023-03-04T01:41:24;95545.59;;;-146.70;92.70
7474;BME280;3778;42.572;23.426;2023-03-04T01:43:54;95506.00;;;-146.70;92.85
7474;BME280;3778;42.572;23.426;2023-03-04T01:46:22;95558.13;;;-146.70;92.77
7474;BME280;3778;42.572;23.426;2023-03-04T01:48:49;95541.44;;;-146.70;92.85
7474;BME280;3778;42.572;23.426;2023-03-04T01:51:17;95531.00;;;-146.70;92.66
7474;BME280;3778;42.572;23.426;2023-03-04T01:53:47;95499.75;;;-146.70;92.36
7474;BME280;3778;42.572;23.426;2023-03-04T01:56:20;95514.34;;;-146.70;92.35
7474;BME280;3778;42.572;23.426;2023-03-04T01:59:06;95522.69;;;-146.70;92.42
7474;BME280;3778;42.572;23.426;2023-03-04T02:01:34;95524.75;;;-146.70;92.40
7474;BME280;3778;42.572;23.426;2023-03-04T02:04:01;95514.34;;;-146.70;92.52
7474;BME280;3778;42.572;23.426;2023-03-04T02:06:27;95433.06;;;-146.70;92.62
7474;BME280;3778;42.572;23.426;2023-03-04T02:08:54;95524.75;;;-146.70;92.56
7474;BME280;3778;42.572;23.426;2023-03-04T02:11:21;95503.91;;;-146.70;92.42
7474;BME280;3778;42.572;23.426;2023-03-04T02:13:48;95533.09;;;-146.70;92.28
7474;BME280;3778;42.572;23.426;2023-03-04T02:16:16;95553.94;;;-146.70;92.17
7474;BME280;3778;42.572;23.426;2023-03-04T02:18:42;95566.44;;;-146.70;92.06
7474;BME280;3778;42.572;23.426;2023-03-04T02:21:13;95510.16;;;-146.70;91.73
7474;BME280;3778;42.572;23.426;2023-03-04T02:23:45;95524.75;;;-146.70;91.18
7474;BME280;3778;42.572;23.426;2023-03-04T02:26:18;95516.44;;;-146.70;90.63
7474;BME280;3778;42.572;23.426;2023-03-04T02:28:47;95533.09;;;-146.70;89.71
7474;BME280;3778;42.572;23.426;2023-03-04T02:31:22;95528.94;;;-146.70;88.84
7474;BME280;3778;42.572;23.426;2023-03-04T02:33:49;95535.19;;;-146.70;88.33
7474;BME280;3778;42.572;23.426;2023-03-04T02:36:16;95533.09;;;-146.70;88.39
7474;BME280;3778;42.572;23.426;2023-03-04T02:38:43;95501.84;;;-146.70;87.61
7474;BME280;3778;42.572;23.426;2023-03-04T02:41:11;95528.94;;;-146.70;87.13
7474;BME280;3778;42.572;23.426;2023-03-04T02:43:40;95495.59;;;-146.70;86.55
7474;BME280;3778;42.572;23.426;2023-03-04T02:46:09;95518.50;;;-146.70;86.43
7474;BME280;3778;42.572;23.426;2023-03-04T02:48:37;95612.31;;;-146.70;86.38
7474;BME280;3778;42.572;23.426;2023-03-04T02:51:04;95551.88;;;-146.70;86.59
7474;BME280;3778;42.572;23.426;2023-03-04T02:53:31;95510.16;;;-146.70;86.30
7474;BME280;3778;42.572;23.426;2023-03-04T02:55:58;95524.75;;;-146.70;85.75
7474;BME280;3778;42.572;23.426;2023-03-04T02:58:25;95512.25;;;-146.70;85.19
7474;BME280;3778;42.572;23.426;2023-03-04T03:00:53;95514.34;;;-146.70;85.22
7474;BME280;3778;42.572;23.426;2023-03-04T03:03:19;95516.44;;;-146.70;85.27
7474;BME280;3778;42.572;23.426;2023-03-04T03:05:46;95543.53;;;-146.70;85.32
7474;BME280;3778;42.572;23.426;2023-03-04T03:08:13;95531.00;;;-146.70;85.07
7474;BME280;3778;42.572;23.426;2023-03-04T03:10:40;95533.09;;;-146.70;84.71
7474;BME280;3778;42.572;23.426;2023-03-04T03:13:06;95541.44;;;-146.70;84.71
7474;BME280;3778;42.572;23.426;2023-03-04T03:15:33;95553.94;;;-146.70;84.94
7474;BME280;3778;42.572;23.426;2023-03-04T03:18:01;95587.31;;;-146.70;85.17
7474;BME280;3778;42.572;23.426;2023-03-04T03:20:28;95551.88;;;-146.70;85.30
7474;BME280;3778;42.572;23.426;2023-03-04T03:22:54;95601.88;;;-146.70;84.88
7474;BME280;3778;42.572;23.426;2023-03-04T03:25:21;95533.09;;;-146.70;84.83
7474;BME280;3778;42.572;23.426;2023-03-04T03:27:48;95612.31;;;-146.70;84.92
7474;BME280;3778;42.572;23.426;2023-03-04T03:30:15;95603.97;;;-146.70;85.12
7474;BME280;3778;42.572;23.426;2023-03-04T03:32:41;95562.28;;;-146.70;85.17
7474;BME280;3778;42.572;23.426;2023-03-04T03:35:10;95583.13;;;-146.70;85.21
7474;BME280;3778;42.572;23.426;2023-03-04T03:37:37;95583.13;;;-146.70;85.39
7474;BME280;3778;42.572;23.426;2023-03-04T03:40:04;95578.97;;;-146.70;85.42
7474;BME280;3778;42.572;23.426;2023-03-04T03:42:31;95608.16;;;-146.70;85.28
7474;BME280;3778;42.572;23.426;2023-03-04T03:44:58;95639.41;;;-146.70;85.29
7474;BME280;3778;42.572;23.426;2023-03-04T03:47:25;95581.03;;;-146.70;85.56
7474;BME280;3778;42.572;23.426;2023-03-04T03:49:51;95585.22;;;-146.70;85.46
7474;BME280;3778;42.572;23.426;2023-03-04T03:52:19;95618.56;;;-146.70;85.38
7474;BME280;3778;42.572;23.426;2023-03-04T03:54:46;95633.16;;;-146.70;85.59
7474;BME280;3778;42.572;23.426;2023-03-04T03:57:13;95674.84;;;-146.70;85.00
7474;BME280;3778;42.572;23.426;2023-03-04T03:59:40;95699.84;;;-146.70;85.48
7474;BME280;3778;42.572;23.426;2023-03-04T04:02:06;95681.09;;;-146.70;86.62
7474;BME280;3778;42.572;23.426;2023-03-04T04:04:33;95656.09;;;-146.70;86.63
7474;BME280;3778;42.572;23.426;2023-03-04T04:07:00;95720.72;;;-146.70;86.61
7474;BME280;3778;42.572;23.426;2023-03-04T04:09:28;95664.44;;;-146.70;86.96
7474;BME280;3778;42.572;23.426;2023-03-04T04:11:55;95583.13;;;-146.70;87.05
7474;BME280;3778;42.572;23.426;2023-03-04T04:14:22;95687.34;;;-146.70;87.30
7474;BME280;3778;42.572;23.426;2023-03-04T04:16:48;95668.59;;;-146.70;87.01
7474;BME280;3778;42.572;23.426;2023-03-04T04:19:17;95695.69;;;-146.70;86.74
7474;BME280;3778;42.572;23.426;2023-03-04T04:21:44;95674.84;;;-146.70;86.41
7474;BME280;3778;42.572;23.426;2023-03-04T04:24:11;95683.19;;;-146.70;86.08
7474;BME280;3778;42.572;23.426;2023-03-04T04:26:40;95654.00;;;-146.70;86.02
7474;BME280;3778;42.572;23.426;2023-03-04T04:29:07;95676.94;;;-146.70;86.17
7474;BME280;3778;42.572;23.426;2023-03-04T04:31:35;95668.59;;;-146.70;86.13
7474;BME280;3778;42.572;23.426;2023-03-04T04:34:01;95624.81;;;-146.70;85.82
7474;BME280;3778;42.572;23.426;2023-03-04T04:36:28;95587.31;;;-146.70;85.69
7474;BME280;3778;42.572;23.426;2023-03-04T04:38:55;95649.84;;;-146.70;85.54
7474;BME280;3778;42.572;23.426;2023-03-04T04:41:24;95654.00;;;-146.70;85.54
7474;BME280;3778;42.572;23.426;2023-03-04T04:43:52;95633.16;;;-146.70;85.65
7474;BME280;3778;42.572;23.426;2023-03-04T04:46:20;95699.84;;;-146.70;85.85
7474;BME280;3778;42.572;23.426;2023-03-04T04:48:46;95622.72;;;-146.70;86.00
7474;BME280;3778;42.572;23.426;2023-03-04T04:51:13;95614.41;;;-146.70;85.89
7474;BME280;3778;42.572;23.426;2023-03-04T04:53:40;95629.00;;;-146.70;85.72
7474;BME280;3778;42.572;23.426;2023-03-04T04:56:11;95670.69;;;-146.70;85.92
7474;BME280;3778;42.572;23.426;2023-03-04T04:58:38;95664.44;;;-146.70;86.13
7474;BME280;3778;42.572;23.426;2023-03-04T05:01:07;95687.34;;;-146.70;86.38
7474;BME280;3778;42.572;23.426;2023-03-04T05:03:36;95704.03;;;-146.70;86.58
7474;BME280;3778;42.572;23.426;2023-03-04T05:06:04;95687.34;;;-146.70;86.96
7474;BME280;3778;42.572;23.426;2023-03-04T05:08:32;95649.84;;;-146.70;87.25
7474;BME280;3778;42.572;23.426;2023-03-04T05:10:59;95635.25;;;-146.70;87.37
7474;BME280;3778;42.572;23.426;2023-03-04T05:13:26;95649.84;;;-146.70;87.86
7474;BME280;3778;42.572;23.426;2023-03-04T05:15:54;95751.97;;;-146.70;88.01
7474;BME280;3778;42.572;23.426;2023-03-04T05:18:24;95687.34;;;-146.70;88.42
7474;BME280;3778;42.572;23.426;2023-03-04T05:20:52;95662.34;;;-146.70;88.69
7474;BME280;3778;42.572;23.426;2023-03-04T05:23:19;95683.19;;;-146.70;88.58
7474;BME280;3778;42.572;23.426;2023-03-04T05:25:46;95681.09;;;-146.70;88.72
7474;BME280;3778;42.572;23.426;2023-03-04T05:28:14;95626.91;;;-146.70;88.76
7474;BME280;3778;42.572;23.426;2023-03-04T05:30:42;95556.03;;;-146.70;88.92
7474;BME280;3778;42.572;23.426;2023-03-04T05:33:10;95685.28;;;-146.70;88.70
7474;BME280;3778;42.572;23.426;2023-03-04T05:35:40;95685.28;;;-146.70;88.35
7474;BME280;3778;42.572;23.426;2023-03-04T05:38:09;95676.94;;;-146.70;87.84
7474;BME280;3778;42.572;23.426;2023-03-04T05:40:36;95641.50;;;-146.70;87.51
7474;BME280;3778;42.572;23.426;2023-03-04T05:43:03;95679.00;;;-146.70;87.48
7474;BME280;3778;42.572;23.426;2023-03-04T05:45:30;95674.84;;;-146.70;87.67
7474;BME280;3778;42.572;23.426;2023-03-04T05:47:57;95685.28;;;-146.70;88.14
7474;BME280;3778;42.572;23.426;2023-03-04T05:50:25;95664.44;;;-146.70;88.49
7474;BME280;3778;42.572;23.426;2023-03-04T05:52:53;95670.69;;;-146.70;88.75
7474;BME280;3778;42.572;23.426;2023-03-04T05:55:20;95697.78;;;-146.70;89.11
7474;BME280;3778;42.572;23.426;2023-03-04T05:57:47;95641.50;;;-146.70;89.40
7474;BME280;3778;42.572;23.426;2023-03-04T06:00:15;95641.50;;;-146.70;89.63
7474;BME280;3778;42.572;23.426;2023-03-04T06:02:43;95608.16;;;-146.70;89.80
7474;BME280;3778;42.572;23.426;2023-03-04T06:05:10;95668.59;;;-146.70;89.81
7474;BME280;3778;42.572;23.426;2023-03-04T06:07:37;95591.47;;;-146.70;89.70
7474;BME280;3778;42.572;23.426;2023-03-04T06:10:06;95668.59;;;-146.70;89.68
7474;BME280;3778;42.572;23.426;2023-03-04T06:12:33;95645.66;;;-146.70;89.72
7474;BME280;3778;42.572;23.426;2023-03-04T06:15:00;95624.81;;;-146.70;89.60
7474;BME280;3778;42.572;23.426;2023-03-04T06:17:28;95620.66;;;-146.70;89.21
7474;BME280;3778;42.572;23.426;2023-03-04T06:19:54;95616.47;;;-146.70;89.15
7474;BME280;3778;42.572;23.426;2023-03-04T06:22:21;95614.41;;;-146.70;89.15
7474;BME280;3778;42.572;23.426;2023-03-04T06:24:48;95651.91;;;-146.70;89.09
7474;BME280;3778;42.572;23.426;2023-03-04T06:27:16;95601.88;;;-146.70;88.90
7474;BME280;3778;42.572;23.426;2023-03-04T06:29:43;95608.16;;;-146.70;88.75
7474;BME280;3778;42.572;23.426;2023-03-04T06:32:09;95612.31;;;-146.70;87.75
7474;BME280;3778;42.572;23.426;2023-03-04T06:34:36;95614.41;;;-146.70;86.81
7474;BME280;3778;42.572;23.426;2023-03-04T06:37:03;95603.97;;;-146.70;85.93
7474;BME280;3778;42.572;23.426;2023-03-04T06:39:29;95645.66;;;-146.70;85.65
7474;BME280;3778;42.572;23.426;2023-03-04T06:41:57;95643.56;;;-146.70;85.25
7474;BME280;3778;42.572;23.426;2023-03-04T06:44:25;95603.97;;;-146.70;85.39
7474;BME280;3778;42.572;23.426;2023-03-04T06:46:51;95589.38;;;-146.70;85.41
7474;BME280;3778;42.572;23.426;2023-03-04T06:49:18;95570.63;;;-146.70;85.91
7474;BME280;3778;42.572;23.426;2023-03-04T06:51:45;95612.31;;;-146.70;85.51
7474;BME280;3778;42.572;23.426;2023-03-04T06:54:12;95622.72;;;-146.70;84.16
7474;BME280;3778;42.572;23.426;2023-03-04T06:56:38;95601.88;;;-146.70;83.47
7474;BME280;3778;42.572;23.426;2023-03-04T06:59:05;95585.22;;;-146.70;83.48
7474;BME280;3778;42.572;23.426;2023-03-04T07:01:33;95533.09;;;-146.70;84.35
7474;BME280;3778;42.572;23.426;2023-03-04T07:04:01;95562.28;;;-146.70;84.51
7474;BME280;3778;42.572;23.426;2023-03-04T07:06:28;95551.88;;;-146.70;84.52
7474;BME280;3778;42.572;23.426;2023-03-04T07:08:55;95564.38;;;-146.70;84.33
7474;BME280;3778;42.572;23.426;2023-03-04T07:11:22;95512.25;;;-146.70;83.42
7474;BME280;3778;42.572;23.426;2023-03-04T07:13:49;95537.28;;;-146.70;82.43
7474;BME280;3778;42.572;23.426;2023-03-04T07:16:18;95543.53;;;-146.70;81.90
7474;BME280;3778;42.572;23.426;2023-03-04T07:18:46;95581.03;;;-146.70;82.38
7474;BME280;3778;42.572;23.426;2023-03-04T07:21:14;95535.19;;;-146.70;82.54
7474;BME280;3778;42.572;23.426;2023-03-04T07:23:42;95564.38;;;-146.70;82.18
7474;BME280;3778;42.572;23.426;2023-03-04T07:26:08;95570.63;;;-146.70;82.29
7474;BME280;3778;42.572;23.426;2023-03-04T07:28:35;95562.28;;;-146.70;82.67
7474;BME280;3778;42.572;23.426;2023-03-04T07:31:17;95541.44;;;-146.70;82.69
7474;BME280;3778;42.572;23.426;2023-03-04T07:33:47;95508.09;;;-146.70;82.30
7474;BME280;3778;42.572;23.426;2023-03-04T07:36:13;95503.91;;;-146.70;82.14
7474;BME280;3778;42.572;23.426;2023-03-04T07:38:42;95533.09;;;-146.70;82.47
7474;BME280;3778;42.572;23.426;2023-03-04T07:41:09;95518.50;;;-146.70;83.00
7474;BME280;3778;42.572;23.426;2023-03-04T07:43:36;95487.25;;;-146.70;83.40
7474;BME280;3778;42.572;23.426;2023-03-04T07:46:04;95520.59;;;-146.70;82.47
7474;BME280;3778;42.572;23.426;2023-03-04T07:48:30;95510.16;;;-146.70;81.80
7474;BME280;3778;42.572;23.426;2023-03-04T07:51:06;95487.25;;;-146.70;82.64
7474;BME280;3778;42.572;23.426;2023-03-04T07:53:34;95458.06;;;-146.70;82.41
7474;BME280;3778;42.572;23.426;2023-03-04T07:56:01;95493.50;;;-146.70;81.87
7474;BME280;3778;42.572;23.426;2023-03-04T07:58:28;95476.81;;;-146.70;81.79
7474;BME280;3778;42.572;23.426;2023-03-04T08:00:54;95485.16;;;-146.70;81.44
7474;BME280;3778;42.572;23.426;2023-03-04T08:03:21;95491.41;;;-146.70;78.66
7474;BME280;3778;42.572;23.426;2023-03-04T08:05:48;95437.22;;;-146.70;77.37
7474;BME280;3778;42.572;23.426;2023-03-04T08:08:16;95476.81;;;-146.70;77.24
7474;BME280;3778;42.572;23.426;2023-03-04T08:10:43;95466.41;;;-146.70;77.66
7474;BME280;3778;42.572;23.426;2023-03-04T08:13:10;95453.91;;;-146.70;77.92
7474;BME280;3778;42.572;23.426;2023-03-04T08:15:39;95447.63;;;-146.70;77.09
7474;BME280;3778;42.572;23.426;2023-03-04T08:18:06;95478.91;;;-146.70;77.34
7474;BME280;3778;42.572;23.426;2023-03-04T08:20:33;95470.56;;;-146.70;76.47
7474;BME280;3778;42.572;23.426;2023-03-04T08:22:59;95424.72;;;-146.70;77.08
7474;BME280;3778;42.572;23.426;2023-03-04T08:25:28;95458.06;;;-146.70;76.80
7474;BME280;3778;42.572;23.426;2023-03-04T08:27:54;95410.13;;;-146.70;76.21
7474;BME280;3778;42.572;23.426;2023-03-04T08:30:21;95460.16;;;-146.70;75.56
7474;BME280;3778;42.572;23.426;2023-03-04T08:32:48;95445.56;;;-146.70;76.09
7474;BME280;3778;42.572;23.426;2023-03-04T08:35:15;95449.72;;;-146.70;75.83
7474;BME280;3778;42.572;23.426;2023-03-04T08:37:41;95428.88;;;-146.70;75.86
7474;BME280;3778;42.572;23.426;2023-03-04T08:40:10;95405.94;;;-146.70;76.45
7474;BME280;3778;42.572;23.426;2023-03-04T08:42:39;95437.22;;;-146.70;76.36
7474;BME280;3778;42.572;23.426;2023-03-04T08:45:07;95435.13;;;-146.70;75.57
7474;BME280;3778;42.572;23.426;2023-03-04T08:47:34;95408.03;;;-146.70;74.48
7474;BME280;3778;42.572;23.426;2023-03-04T08:50:00;95437.22;;;-146.70;74.24
7474;BME280;3778;42.572;23.426;2023-03-04T08:52:27;95420.53;;;-146.70;74.84
7474;BME280;3778;42.572;23.426;2023-03-04T08:54:54;95391.38;;;-146.70;74.69
7474;BME280;3778;42.572;23.426;2023-03-04T08:57:21;95412.22;;;-146.70;74.94
7474;BME280;3778;42.572;23.426;2023-03-04T08:59:49;95418.47;;;-146.70;75.51
7474;BME280;3778;42.572;23.426;2023-03-04T09:02:16;95405.94;;;-146.70;76.01
7474;BME280;3778;42.572;23.426;2023-03-04T09:04:42;95422.63;;;-146.70;75.76
7474;BME280;3778;42.572;23.426;2023-03-04T09:07:09;95378.84;;;-146.70;75.55
7474;BME280;3778;42.572;23.426;2023-03-04T09:09:36;95401.78;;;-146.70;73.51
7474;BME280;3778;42.572;23.426;2023-03-04T09:12:03;95360.09;;;-146.70;73.10
7474;BME280;3778;42.572;23.426;2023-03-04T09:14:29;95403.88;;;-146.70;73.56
7474;BME280;3778;42.572;23.426;2023-03-04T09:16:58;95420.53;;;-146.70;73.45
7474;BME280;3778;42.572;23.426;2023-03-04T09:19:25;95387.19;;;-146.70;72.92
7474;BME280;3778;42.572;23.426;2023-03-04T09:21:52;95389.28;;;-146.70;74.66
7474;BME280;3778;42.572;23.426;2023-03-04T09:24:20;95374.69;;;-146.70;73.84
7474;BME280;3778;42.572;23.426;2023-03-04T09:26:49;95380.94;;;-146.70;73.44
7474;BME280;3778;42.572;23.426;2023-03-04T09:29:16;95362.19;;;-146.70;73.79
7474;BME280;3778;42.572;23.426;2023-03-04T09:31:43;95349.69;;;-146.70;74.28
7474;BME280;3778;42.572;23.426;2023-03-04T09:34:11;95343.44;;;-146.70;74.26
7474;BME280;3778;42.572;23.426;2023-03-04T09:36:38;95324.66;;;-146.70;73.85
7474;BME280;3778;42.572;23.426;2023-03-04T09:39:05;95295.47;;;-146.70;73.96
7474;BME280;3778;42.572;23.426;2023-03-04T09:41:36;95328.84;;;-146.70;72.60
7474;BME280;3778;42.572;23.426;2023-03-04T09:44:09;95303.81;;;-146.70;72.66
7474;BME280;3778;42.572;23.426;2023-03-04T09:46:40;95278.81;;;-146.70;71.60
7474;BME280;3778;42.572;23.426;2023-03-04T09:49:12;95345.50;;;-146.70;70.87
7474;BME280;3778;42.572;23.426;2023-03-04T09:51:47;95333.00;;;-146.70;71.38
7474;BME280;3778;42.572;23.426;2023-03-04T09:54:21;95287.16;;;-146.70;71.72
7474;BME280;3778;42.572;23.426;2023-03-04T09:56:56;95276.72;;;-146.70;70.88
7474;BME280;3778;42.572;23.426;2023-03-04T09:59:29;95308.00;;;-146.70;70.92
7474;BME280;3778;42.572;23.426;2023-03-04T10:01:59;95266.31;;;-146.70;69.29
7474;BME280;3778;42.572;23.426;2023-03-04T10:04:33;95262.13;;;-146.70;70.03
7474;BME280;3778;42.572;23.426;2023-03-04T10:07:02;95253.78;;;-146.70;70.70
7474;BME280;3778;42.572;23.426;2023-03-04T10:09:35;95195.44;;;-146.70;68.65
7474;BME280;3778;42.572;23.426;2023-03-04T10:12:11;95195.44;;;-146.70;68.01
7474;BME280;3778;42.572;23.426;2023-03-04T10:14:42;95220.44;;;-146.70;67.49
7474;BME280;3778;42.572;23.426;2023-03-04T10:17:17;95210.03;;;-146.70;67.54
7474;BME280;3778;42.572;23.426;2023-03-04T10:19:54;95220.44;;;-146.70;66.15
7474;BME280;3778;42.572;23.426;2023-03-04T10:22:31;95224.63;;;-146.70;67.03
7474;BME280;3778;42.572;23.426;2023-03-04T10:25:04;95149.59;;;-146.70;66.01
7474;BME280;3778;42.572;23.426;2023-03-04T10:27:33;95149.59;;;-146.70;65.69
7474;BME280;3778;42.572;23.426;2023-03-04T10:30:00;95199.59;;;-146.70;66.52
7474;BME280;3778;42.572;23.426;2023-03-04T10:32:27;95203.78;;;-146.70;66.15
7474;BME280;3778;42.572;23.426;2023-03-04T10:34:55;95187.09;;;-146.70;66.78
7474;BME280;3778;42.572;23.426;2023-03-04T10:37:21;95176.69;;;-146.70;65.63
7474;BME280;3778;42.572;23.426;2023-03-04T10:39:49;95182.94;;;-146.70;65.93
7474;BME280;3778;42.572;23.426;2023-03-04T10:42:26;95193.34;;;-146.70;65.27
7474;BME280;3778;42.572;23.426;2023-03-04T10:44:55;95130.81;;;-146.70;64.67
7474;BME280;3778;42.572;23.426;2023-03-04T10:47:23;95082.88;;;-146.70;64.81
7474;BME280;3778;42.572;23.426;2023-03-04T10:49:52;95153.75;;;-146.70;63.82
7474;BME280;3778;42.572;23.426;2023-03-04T10:52:27;95147.50;;;-146.70;65.08
7474;BME280;3778;42.572;23.426;2023-03-04T10:54:55;95212.13;;;-146.70;65.35
7474;BME280;3778;42.572;23.426;2023-03-04T10:57:27;95237.13;;;-146.70;66.99
7474;BME280;3778;42.572;23.426;2023-03-04T10:59:57;95243.38;;;-146.70;67.45
7474;BME280;3778;42.572;23.426;2023-03-04T11:02:26;95226.69;;;-146.70;67.63
7474;BME280;3778;42.572;23.426;2023-03-04T11:04:56;95182.94;;;-146.70;67.31
7474;BME280;3778;42.572;23.426;2023-03-04T11:07:26;95178.75;;;-146.70;67.34
7474;BME280;3778;42.572;23.426;2023-03-04T11:09:53;95178.75;;;-146.70;67.44
7474;BME280;3778;42.572;23.426;2023-03-04T11:12:21;95168.34;;;-146.70;66.23
7474;BME280;3778;42.572;23.426;2023-03-04T11:14:57;95153.75;;;-146.70;66.14
7474;BME280;3778;42.572;23.426;2023-03-04T11:17:25;95099.56;;;-146.70;66.71
7474;BME280;3778;42.572;23.426;2023-03-04T11:19:56;95101.66;;;-146.70;65.84
7474;BME280;3778;42.572;23.426;2023-03-04T11:22:25;95103.72;;;-146.70;66.44
7474;BME280;3778;42.572;23.426;2023-03-04T11:24:59;95116.25;;;-146.70;64.07
7474;BME280;3778;42.572;23.426;2023-03-04T11:27:37;95097.47;;;-146.70;64.55
7474;BME280;3778;42.572;23.426;2023-03-04T11:33:16;95103.72;;;-146.70;62.45
7474;BME280;3778;42.572;23.426;2023-03-04T11:35:52;95160.00;;;-146.70;64.04
7474;BME280;3778;42.572;23.426;2023-03-04T11:38:22;95101.66;;;-146.70;62.97
7474;BME280;3778;42.572;23.426;2023-03-04T11:40:53;95074.56;;;-146.70;65.11
7474;BME280;3778;42.572;23.426;2023-03-04T11:43:25;95064.13;;;-146.70;62.54
7474;BME280;3778;42.572;23.426;2023-03-04T11:49:13;94993.28;;;-146.70;62.69
7474;BME280;3778;42.572;23.426;2023-03-04T11:51:49;94989.09;;;-146.70;62.41
7474;BME280;3778;42.572;23.426;2023-03-04T11:54:28;95026.63;;;-146.70;61.07
7474;BME280;3778;42.572;23.426;2023-03-04T11:56:59;95009.94;;;-146.70;61.16
7474;BME280;3778;42.572;23.426;2023-03-04T11:59:54;95057.88;;;-146.70;61.39
7474;BME280;3778;42.572;23.426;2023-03-04T12:02:30;95114.16;;;-146.70;61.87
7474;BME280;3778;42.572;23.426;2023-03-04T12:05:16;95047.47;;;-146.70;62.31
7474;BME280;3778;42.572;23.426;2023-03-04T12:08:05;95066.22;;;-146.70;62.57
7474;BME280;3778;42.572;23.426;2023-03-04T12:10:41;95041.22;;;-146.70;62.72
7474;BME280;3778;42.572;23.426;2023-03-04T12:13:38;95057.88;;;-146.70;62.28
7474;BME280;3778;42.572;23.426;2023-03-04T12:16:20;95068.31;;;-146.70;61.94
7474;BME280;3778;42.572;23.426;2023-03-04T12:19:07;95059.97;;;-146.70;62.45
7474;BME280;3778;42.572;23.426;2023-03-04T12:24:44;95137.06;;;-146.70;63.63
7474;BME280;3778;42.572;23.426;2023-03-04T12:27:22;95130.81;;;-146.70;64.29
7474;BME280;3778;42.572;23.426;2023-03-04T12:29:57;95145.41;;;-146.70;65.07
7474;BME280;3778;42.572;23.426;2023-03-04T12:32:33;95082.88;;;-146.70;65.21
7474;BME280;3778;42.572;23.426;2023-03-04T12:35:18;95093.31;;;-146.70;64.82
7474;BME280;3778;42.572;23.426;2023-03-04T12:38:11;95132.91;;;-146.70;64.71
7474;BME280;3778;42.572;23.426;2023-03-04T12:40:46;95099.56;;;-146.70;64.57
7474;BME280;3778;42.572;23.426;2023-03-04T12:43:27;95099.56;;;-146.70;64.86
7474;BME280;3778;42.572;23.426;2023-03-04T12:46:03;95089.13;;;-146.70;65.31
7474;BME280;3778;42.572;23.426;2023-03-04T12:48:35;95087.06;;;-146.70;64.32
7474;BME280;3778;42.572;23.426;2023-03-04T12:51:14;95143.34;;;-146.70;64.22
7474;BME280;3778;42.572;23.426;2023-03-04T12:53:53;95145.41;;;-146.70;65.28
7474;BME280;3778;42.572;23.426;2023-03-04T12:56:25;95120.41;;;-146.70;65.89
7474;BME280;3778;42.572;23.426;2023-03-04T12:58:55;95126.66;;;-146.70;66.15
7474;BME280;3778;42.572;23.426;2023-03-04T13:01:25;95147.50;;;-146.70;64.72
7474;BME280;3778;42.572;23.426;2023-03-04T13:03:59;95132.91;;;-146.70;65.13
7474;BME280;3778;42.572;23.426;2023-03-04T13:06:35;95116.25;;;-146.70;64.63
7474;BME280;3778;42.572;23.426;2023-03-04T13:09:11;95157.91;;;-146.70;65.09